createdAt,value
2022-12-05T00:02:26.400Z,102623.94
2022-12-05T00:04:55.509Z,102652.56
2022-12-05T00:07:26.479Z,102556.25
2022-12-05T00:09:56.482Z,102387.63
2022-12-05T00:12:26.036Z,102253.38
2022-12-05T00:14:56.697Z,102522.88
2022-12-05T00:17:26.532Z,102639.22
2022-12-05T00:19:57.091Z,102597.63
2022-12-05T00:22:27.160Z,102642.19
2022-12-05T00:24:56.436Z,102545.66
2022-12-05T00:27:25.655Z,102668.31
2022-12-05T00:29:56.953Z,102367.19
2022-12-05T00:32:26.417Z,102656.09
2022-12-05T00:34:55.874Z,102636.59
2022-12-05T00:37:25.435Z,102522.66
2022-12-05T00:39:54.984Z,102641.88
2022-12-05T00:42:25.163Z,102631.88
2022-12-05T00:44:54.472Z,102633.78
2022-12-05T00:47:25.475Z,102539.44
2022-12-05T00:49:54.913Z,102625.25
2022-12-05T00:52:24.435Z,102621.91
2022-12-05T00:54:53.663Z,102572.50
2022-12-05T00:57:23.415Z,102616.22
2022-12-05T00:59:53.151Z,102616.69
2022-12-05T01:02:22.846Z,102611.19
2022-12-05T01:04:53.365Z,102585.75
2022-12-05T01:07:22.505Z,102554.25
2022-12-05T01:09:51.613Z,102486.00
2022-12-05T01:12:21.012Z,102565.50
2022-12-05T01:14:50.377Z,102600.97
2022-12-05T01:17:19.823Z,102602.88
2022-12-05T01:19:49.219Z,102594.66
2022-12-05T01:22:19.696Z,102541.50
2022-12-05T01:24:48.935Z,102558.53
2022-12-05T01:27:18.297Z,102534.16
2022-12-05T01:29:47.637Z,102559.44
2022-12-05T01:32:16.610Z,102576.06
2022-12-05T01:34:46.431Z,102539.06
2022-12-05T01:37:15.810Z,102567.84
2022-12-05T01:39:46.508Z,102568.34
2022-12-05T01:42:15.602Z,102522.66
2022-12-05T01:45:07.773Z,102512.47
2022-12-05T01:47:38.613Z,102387.31
2022-12-05T01:50:09.414Z,102565.13
2022-12-05T01:52:39.756Z,102562.75
2022-12-05T01:55:14.220Z,102561.19
2022-12-05T01:57:44.054Z,102566.06
2022-12-05T02:00:17.167Z,102554.56
2022-12-05T02:02:50.747Z,102567.72
2022-12-05T02:05:23.554Z,102564.22
2022-12-05T02:07:53.707Z,102533.88
2022-12-05T02:10:25.400Z,102444.88
2022-12-05T02:13:01.727Z,102551.59
2022-12-05T02:15:43.212Z,102573.53
2022-12-05T02:18:29.997Z,102569.13
2022-12-05T02:21:15.764Z,102482.81
2022-12-05T02:24:13.176Z,102574.50
2022-12-05T02:27:01.744Z,102575.13
2022-12-05T02:30:12.518Z,102534.50
2022-12-05T02:33:07.342Z,102577.06
2022-12-05T02:35:43.382Z,102475.84
2022-12-05T02:38:26.288Z,102470.91
2022-12-05T02:41:04.613Z,102578.22
2022-12-05T02:43:40.341Z,102579.56
2022-12-05T02:46:12.885Z,102534.06
2022-12-05T02:48:46.753Z,102584.06
2022-12-05T02:51:21.412Z,102580.84
2022-12-05T02:53:51.939Z,102541.63
2022-12-05T02:56:22.007Z,102578.63
2022-12-05T02:58:55.246Z,102516.56
2022-12-05T03:01:30.505Z,102233.88
2022-12-05T03:04:04.179Z,102577.56
2022-12-05T03:06:35.574Z,102578.22
2022-12-05T03:09:09.141Z,102432.81
2022-12-05T03:11:40.242Z,102576.06
2022-12-05T03:14:16.300Z,102397.16
2022-12-05T03:16:52.159Z,102462.81
2022-12-05T03:19:28.308Z,102374.03
2022-12-05T03:22:02.998Z,102619.06
2022-12-05T03:24:36.530Z,102506.50
2022-12-05T03:27:12.463Z,102547.53
2022-12-05T03:29:50.446Z,102340.34
2022-12-05T03:32:26.549Z,102289.88
2022-12-05T03:35:08.231Z,102601.13
2022-12-05T03:37:47.779Z,102582.94
2022-12-05T03:40:27.853Z,102593.34
2022-12-05T03:43:09.435Z,102193.47
2022-12-05T03:45:48.326Z,102588.66
2022-12-05T03:48:24.689Z,102569.41
2022-12-05T03:50:57.616Z,102571.84
2022-12-05T03:53:30.320Z,102569.50
2022-12-05T03:56:05.475Z,102551.59
2022-12-05T03:58:40.091Z,102580.22
2022-12-05T04:01:12.041Z,102568.38
2022-12-05T04:03:45.142Z,102376.84
2022-12-05T04:06:25.112Z,102529.81
2022-12-05T04:08:59.174Z,102364.91
2022-12-05T04:11:33.067Z,102482.56
2022-12-05T04:14:07.774Z,102552.69
2022-12-05T04:17:00.371Z,102557.44
2022-12-05T04:19:54.120Z,102410.03
2022-12-05T04:22:25.500Z,102204.63
2022-12-05T04:25:15.086Z,102525.00
2022-12-05T04:27:52.737Z,102266.13
2022-12-05T04:30:24.776Z,102425.56
2022-12-05T04:33:04.216Z,102361.00
2022-12-05T04:35:38.238Z,102366.50
2022-12-05T04:38:13.266Z,102482.19
2022-12-05T04:40:50.084Z,102493.94
2022-12-05T04:43:21.418Z,102475.94
2022-12-05T04:45:53.654Z,102462.38
2022-12-05T04:48:26.742Z,102535.19
2022-12-05T04:50:57.908Z,102535.19
2022-12-05T04:53:32.556Z,102516.28
2022-12-05T04:56:03.860Z,102339.81
2022-12-05T04:58:35.414Z,102527.75
2022-12-05T05:01:09.326Z,102373.44
2022-12-05T05:03:47.449Z,102229.31
2022-12-05T05:06:18.414Z,102330.91
2022-12-05T05:08:52.075Z,102461.34
2022-12-05T05:11:24.388Z,102244.41
2022-12-05T05:13:54.560Z,102394.38
2022-12-05T05:16:26.392Z,102523.44
2022-12-05T05:18:56.146Z,102544.25
2022-12-05T05:21:28.359Z,102499.00
2022-12-05T05:24:00.125Z,102514.91
2022-12-05T05:26:30.737Z,102331.50
2022-12-05T05:29:00.422Z,102152.38
2022-12-05T05:31:32.582Z,102267.81
2022-12-05T05:34:07.623Z,102144.03
2022-12-05T05:36:45.479Z,102373.22
2022-12-05T05:39:17.980Z,102515.94
2022-12-05T05:41:47.245Z,102560.44
2022-12-05T05:44:16.786Z,102560.13
2022-12-05T05:46:46.316Z,102558.03
2022-12-05T05:49:15.998Z,102544.94
2022-12-05T05:51:45.293Z,102563.81
2022-12-05T05:54:16.210Z,102565.66
2022-12-05T05:56:45.790Z,102571.03
2022-12-05T05:59:15.246Z,102590.91
2022-12-05T06:01:45.179Z,102386.94
2022-12-05T06:04:15.246Z,102369.75
2022-12-05T06:06:45.923Z,102505.22
2022-12-05T06:09:16.895Z,102549.56
2022-12-05T06:11:47.370Z,102440.00
2022-12-05T06:14:17.403Z,102361.16
2022-12-05T06:16:48.408Z,102231.38
2022-12-05T06:19:20.211Z,102564.72
2022-12-05T06:21:51.436Z,102580.97
2022-12-05T06:24:28.130Z,102268.00
2022-12-05T06:27:00.756Z,102559.13
2022-12-05T06:29:33.835Z,102156.56
2022-12-05T06:32:06.545Z,102568.41
2022-12-05T06:34:35.937Z,102418.88
2022-12-05T06:37:08.666Z,102311.91
2022-12-05T06:39:40.014Z,102548.69
2022-12-05T06:42:09.995Z,102564.41
2022-12-05T06:44:41.571Z,102591.09
2022-12-05T06:47:11.311Z,102517.72
2022-12-05T06:49:40.652Z,102481.03
2022-12-05T06:52:10.463Z,102543.34
2022-12-05T06:54:41.145Z,102450.81
2022-12-05T06:57:11.050Z,102473.63
2022-12-05T06:59:40.610Z,102500.03
2022-12-05T07:02:15.151Z,102478.38
2022-12-05T07:04:44.618Z,102527.34
2022-12-05T07:07:16.194Z,102511.78
2022-12-05T07:09:48.669Z,102512.03
2022-12-05T07:12:20.008Z,102540.97
2022-12-05T07:14:50.254Z,102537.91
2022-12-05T07:17:21.506Z,102507.47
2022-12-05T07:19:51.526Z,102434.50
2022-12-05T07:22:22.568Z,102223.78
2022-12-05T07:24:54.395Z,102531.81
2022-12-05T07:27:27.634Z,102498.34
2022-12-05T07:29:58.047Z,102536.00
2022-12-05T07:32:28.044Z,102199.75
2022-12-05T07:34:57.558Z,102193.88
2022-12-05T07:37:26.912Z,102296.16
2022-12-05T07:39:58.373Z,102509.44
2022-12-05T07:42:28.018Z,102531.84
2022-12-05T07:44:57.774Z,102370.94
2022-12-05T07:47:27.766Z,102429.78
2022-12-05T10:45:59.855Z,102369.31
2022-12-05T10:48:58.710Z,102405.44
2022-12-05T10:51:34.215Z,102343.41
2022-12-05T10:54:18.448Z,102409.25
2022-12-05T10:56:49.380Z,102402.91
2022-12-05T10:59:21.277Z,102351.78
2022-12-05T11:01:55.148Z,102398.72
2022-12-05T11:04:31.515Z,102337.19
2022-12-05T11:07:02.556Z,102236.91
2022-12-05T11:09:40.353Z,102393.50
2022-12-05T11:12:19.502Z,102334.31
2022-12-05T11:15:01.026Z,102344.25
2022-12-05T11:17:35.612Z,102377.00
2022-12-05T11:20:27.966Z,102362.00
2022-12-05T11:23:01.411Z,102350.03
2022-12-05T11:25:37.473Z,102307.47
2022-12-05T11:28:34.209Z,102371.53
2022-12-05T11:31:05.413Z,102290.66
2022-12-05T11:33:37.538Z,102352.41
2022-12-05T11:36:14.543Z,102312.22
2022-12-05T11:38:44.032Z,102318.41
2022-12-05T11:41:36.339Z,102340.16
2022-12-05T11:44:24.418Z,102334.81
2022-12-05T11:47:06.681Z,102305.03
2022-12-05T11:49:55.598Z,102321.91
2022-12-05T11:52:40.674Z,102310.78
2022-12-05T11:55:17.871Z,102263.41
2022-12-05T11:58:11.427Z,102313.47
2022-12-05T12:00:56.219Z,102309.69
2022-12-05T12:03:45.703Z,102293.75
2022-12-05T12:06:48.201Z,102320.38
2022-12-05T12:09:33.508Z,102307.78
2022-12-05T12:12:11.052Z,102303.56
2022-12-05T12:15:00.038Z,102303.00
2022-12-05T12:17:42.871Z,102325.66
2022-12-05T12:20:35.216Z,102065.88
2022-12-05T12:23:27.822Z,102291.63
2022-12-05T12:26:12.452Z,101869.81
2022-12-05T12:28:47.956Z,101862.16
2022-12-05T12:31:36.308Z,102274.84
2022-12-05T12:34:38.792Z,102104.94
2022-12-05T12:37:18.284Z,102109.91
2022-12-05T12:39:54.741Z,101898.59
2022-12-05T12:42:32.640Z,102291.88
2022-12-05T12:45:27.325Z,102288.13
2022-12-05T12:48:20.200Z,102284.81
2022-12-05T12:50:54.099Z,102248.78
2022-12-05T12:53:57.352Z,102203.69
2022-12-05T12:56:39.109Z,102266.31
2022-12-05T12:59:24.510Z,102279.44
2022-12-05T13:01:59.904Z,102282.66
2022-12-05T13:04:40.637Z,102214.53
2022-12-05T13:07:15.428Z,102284.84
2022-12-05T13:09:54.347Z,102288.50
2022-12-05T13:12:31.964Z,102212.06
2022-12-05T13:15:10.101Z,102275.81
2022-12-05T13:17:43.042Z,102250.25
2022-12-05T13:20:18.744Z,102224.16
2022-12-05T13:22:50.749Z,102111.72
2022-12-05T13:25:28.616Z,102266.66
2022-12-05T13:28:04.384Z,102239.22
2022-12-05T13:30:57.027Z,102245.63
2022-12-05T13:33:28.684Z,102238.19
2022-12-05T13:36:21.479Z,102245.97
2022-12-05T13:39:08.604Z,102269.16
2022-12-05T13:42:02.553Z,102280.84
2022-12-05T13:44:39.069Z,102258.56
2022-12-05T13:47:16.861Z,102264.38
2022-12-05T13:49:51.019Z,102211.38
2022-12-05T13:52:27.139Z,102260.16
2022-12-05T13:55:04.172Z,102261.59
2022-12-05T13:57:54.052Z,102252.53
2022-12-05T14:00:31.905Z,102249.81
2022-12-05T14:03:16.329Z,102217.44
2022-12-05T14:05:51.758Z,102241.34
2022-12-05T14:09:04.849Z,102236.00
2022-12-05T14:11:34.368Z,102180.78
2022-12-05T14:14:04.838Z,102231.53
2022-12-05T14:16:46.349Z,102226.41
2022-12-05T14:19:37.253Z,102204.53
2022-12-05T14:22:29.778Z,102226.78
2022-12-05T14:25:07.911Z,102092.53
2022-12-05T14:27:50.835Z,102222.78
2022-12-05T14:30:25.076Z,102223.97
2022-12-05T14:32:56.400Z,102208.81
2022-12-05T14:35:31.131Z,102193.31
2022-12-05T14:38:03.833Z,102153.59
2022-12-05T14:40:35.489Z,102222.34
2022-12-05T14:43:07.387Z,102184.03
2022-12-05T14:45:39.532Z,102213.09
2022-12-05T14:48:30.743Z,102178.06
2022-12-05T14:51:04.855Z,102181.28
2022-12-05T14:53:39.680Z,102193.16
2022-12-05T14:56:18.684Z,102196.63
2022-12-05T14:58:52.003Z,102210.91
2022-12-05T15:01:24.935Z,102210.47
2022-12-05T15:04:17.492Z,102211.84
2022-12-05T15:06:50.291Z,102181.63
2022-12-05T15:09:51.005Z,102176.88
2022-12-05T15:12:24.152Z,102215.91
2022-12-05T15:15:02.110Z,102208.22
2022-12-05T15:17:39.117Z,102214.41
2022-12-05T15:20:18.021Z,102130.03
2022-12-05T15:22:48.196Z,102158.38
2022-12-05T15:25:24.434Z,102204.16
2022-12-05T15:27:59.469Z,102212.38
2022-12-05T15:30:30.474Z,102206.34
2022-12-05T15:33:01.009Z,102176.47
2022-12-05T15:35:35.417Z,102178.97
2022-12-05T15:38:10.708Z,102210.34
2022-12-05T15:40:39.810Z,102179.59
2022-12-05T15:43:32.348Z,102205.91
2022-12-05T15:46:24.095Z,102209.09
2022-12-05T15:48:55.229Z,102069.66
2022-12-05T15:51:32.271Z,102208.03
2022-12-05T15:54:08.942Z,102206.69
2022-12-05T15:56:43.593Z,102195.47
2022-12-05T15:59:20.088Z,102161.91
2022-12-05T16:01:56.424Z,102195.44
2022-12-05T16:04:36.131Z,102201.44
2022-12-05T16:07:09.915Z,102142.59
2022-12-05T16:09:44.642Z,102193.47
2022-12-05T16:12:40.079Z,102205.16
2022-12-05T19:19:00.816Z,101846.91
2022-12-05T19:21:33.612Z,102139.59
2022-12-05T19:24:07.564Z,101883.53
2022-12-05T19:26:39.313Z,102007.88
2022-12-05T19:29:15.902Z,102024.81
2022-12-05T19:31:47.698Z,101943.41
2022-12-05T19:34:21.878Z,101839.66
2022-12-05T19:36:59.987Z,102129.31
2022-12-05T19:39:33.309Z,101887.66
2022-12-05T19:42:08.449Z,102006.94
2022-12-05T19:44:38.630Z,102013.75
2022-12-05T19:47:09.204Z,101945.59
2022-12-05T19:49:46.090Z,101854.63
2022-12-05T19:53:14.208Z,101816.72
2022-12-05T19:55:51.718Z,102121.22
2022-12-05T19:58:25.854Z,101807.59
2022-12-05T20:02:19.602Z,101830.72
2022-12-05T20:05:47.897Z,101877.53
2022-12-05T20:08:43.374Z,101938.25
2022-12-05T20:11:33.768Z,101979.09
2022-12-05T20:14:07.386Z,102115.97
2022-12-05T20:16:38.871Z,102099.03
2022-12-05T20:19:12.394Z,102094.56
2022-12-05T20:21:44.891Z,101830.56
2022-12-05T20:24:18.509Z,101798.34
2022-12-05T20:26:54.241Z,101824.00
2022-12-05T20:29:34.129Z,102083.91
2022-12-05T20:32:11.655Z,101806.25
2022-12-05T20:34:59.592Z,101990.19
2022-12-05T20:37:35.743Z,102096.38
2022-12-05T20:40:08.743Z,101965.00
2022-12-05T20:42:46.621Z,101817.19
2022-12-05T20:45:17.307Z,101777.06
2022-12-05T20:47:51.756Z,101929.03
2022-12-05T20:50:25.095Z,101794.13
2022-12-05T20:53:01.565Z,101803.75
2022-12-05T20:55:36.228Z,102057.75
2022-12-05T20:58:11.081Z,102049.94
2022-12-05T21:00:51.001Z,102097.03
2022-12-05T21:03:21.260Z,101997.09
2022-12-05T21:05:56.857Z,102095.75
2022-12-05T21:08:29.887Z,101929.00
2022-12-05T21:10:59.604Z,102067.81
2022-12-05T21:13:33.133Z,102017.44
2022-12-05T21:16:07.846Z,102119.81
2022-12-05T21:18:39.899Z,102021.97
2022-12-05T21:21:16.206Z,102037.47
2022-12-05T21:23:51.011Z,102041.19
2022-12-05T21:27:17.629Z,102094.28
2022-12-05T21:29:47.957Z,101984.25
2022-12-05T21:32:30.047Z,101833.41
2022-12-05T21:35:03.913Z,101986.13
2022-12-05T21:37:38.653Z,101908.97
2022-12-05T21:40:22.281Z,101874.91
2022-12-05T21:43:03.676Z,102043.25
2022-12-05T21:45:43.348Z,101961.88
2022-12-05T21:48:15.428Z,101764.38
2022-12-05T21:50:47.580Z,102022.09
2022-12-05T21:53:17.706Z,102037.09
2022-12-05T21:55:52.324Z,101987.78
2022-12-05T21:58:25.575Z,101836.16
2022-12-05T22:00:59.384Z,102053.63
2022-12-05T22:03:28.899Z,102055.47
2022-12-05T22:06:07.227Z,101740.91
2022-12-05T22:08:41.014Z,102042.81
2022-12-05T22:11:13.591Z,101810.25
2022-12-05T22:13:44.758Z,101738.03
2022-12-05T22:16:16.150Z,102033.38
2022-12-05T22:18:46.494Z,101776.94
2022-12-05T22:21:18.311Z,101759.72
2022-12-05T22:23:53.054Z,102034.22
2022-12-05T22:26:26.148Z,102031.66
2022-12-05T22:28:57.475Z,101825.09
2022-12-05T22:31:30.367Z,101827.91
2022-12-05T22:34:00.985Z,102006.84
2022-12-05T22:36:34.203Z,102009.97
2022-12-05T22:39:04.721Z,101878.47
2022-12-05T22:41:35.801Z,102023.97
2022-12-05T22:44:05.528Z,101866.63
2022-12-05T22:46:37.222Z,101738.31
2022-12-05T22:49:06.723Z,101805.50
2022-12-05T22:51:37.303Z,101708.38
2022-12-05T22:54:10.542Z,101837.31
2022-12-05T22:56:44.007Z,102028.09
2022-12-05T22:59:14.947Z,101697.34
2022-12-05T23:01:47.805Z,101867.09
2022-12-05T23:04:17.672Z,101974.66
2022-12-05T23:06:50.381Z,101764.50
2022-12-05T23:09:20.719Z,101944.72
2022-12-05T23:11:52.755Z,101778.00
2022-12-05T23:14:25.655Z,101635.22
2022-12-05T23:16:57.952Z,101946.19
2022-12-05T23:19:27.690Z,101967.84
2022-12-05T23:21:59.805Z,101951.25
2022-12-05T23:24:32.635Z,101678.41
2022-12-05T23:27:06.196Z,101810.38
2022-12-05T23:29:36.022Z,101950.38
2022-12-05T23:32:06.230Z,101724.78
2022-12-05T23:34:35.786Z,101889.34
2022-12-05T23:37:05.664Z,101951.88
2022-12-05T23:39:35.150Z,101752.75
2022-12-05T23:42:10.830Z,101674.38
2022-12-05T23:44:46.213Z,101933.44
2022-12-05T23:47:19.218Z,101830.38
2022-12-05T23:49:49.756Z,101875.84
2022-12-05T23:52:20.123Z,101584.78
2022-12-05T23:54:50.198Z,101933.38
2022-12-05T23:57:21.298Z,101913.38
2022-12-05T23:59:51.634Z,101865.19
